الصفحة الرئيسية
METAR-TAF:

METAR-TAF

مطار :

مطار الكويت الدولي

مدينة الكويت, الكويت

دائرة عرض: 29-13N, خط طول: 047-59E, ارتفاع: 55 متر

مراقبة الطقس الحالي

تاريخ ووقت الإصدار 41 دقيقة قبل الساعة 19:00UTC
ريح 8 عقدة من الجنوب
درجة الحرارة 18°درجة مئوية
الرطوبة 83%
ضغط 1020 hPa
الرؤية 10 كم أو أكثر
الغيوم لا تقل 1500 م ولا وجود لمزنة ركامية السحاب الأسود

METAR: OKBK 171900Z 17008KT CAVOK 18/15 Q1020 NOSIG

زمن: 22:41 (19:41 UTC)

توقعات

تاريخ ووقت الإصدار 2ساعات و 56 دقيقة قبل الساعة 16:45UTC
التوقعات صالحة من17 الساعة 18 UTC إلى 18 الساعة 24 UTC
ريح 8 عقدة من الجنوب تتزايد حتى 18 عقدة
الرؤية: 7000 متر
غيوم قليلة على ارتفاع 3000 قدم
غيوم مفككة على ارتفاع 8000 قدم
مؤقت
من 17 الساعة 21 UTC إلى 18 الساعة 06 UTC
الرؤية: 3000 متر
غيوم قليلة على ارتفاع 2500 قدم, مزنة ركامية.
عاصفة رعدية, مطر

TAF: OKBK 171645Z 1718/1824 17008G18KT 7000 FEW030 BKN080 TEMPO 1721/1806 3000 TSRA FEW025CB

أرصاد الطقس والتوقعات من أكثر من 4000 مطار (تقارير الطقس للمطار METAR والتنبؤ بالطقس بالمطارTAF).

المحطات المتاحة هي النقط الصفراء والحمراء على الخريطة.

حرك المؤشر فوق النقطة لمعرفة اسم المحطة.

ثم انقر لمعرفة أرصاد وتوقعات الطقس.

لتغيير الخارطة: اضغط على الأزرار الخضراء مع رمز الصليب الأسود للتكبير. على الزر الأخضر مع شرطة للتصغير، أو على الأسهم الخضراء للخرائط المجاورة.


METAR-TAF: